Time;durP1;ratioP1;P1;durP2;ratioP2;P2;SDS_P1;SDS_P2;PMS_P1;PMS_P2;Temp;Humidity;BMP_temperature;BMP_pressure;BME280_temperature;BME280_humidity;BME280_pressure;Samples;Min_cycle;Max_cycle;Signal;HPM_P1;HPM_P2
2022/09/10 00:02:19;;;;;;;1.37;1.00;;;14.90;99.90;;;;;;4900378;29;20601;-73
2022/09/10 00:04:45;;;;;;;1.97;1.00;;;14.90;99.90;;;;;;4899903;29;20241;-73
2022/09/10 00:07:11;;;;;;;2.40;1.07;;;14.90;99.90;;;;;;4900404;29;20238;-73
2022/09/10 00:09:37;;;;;;;3.10;0.80;;;15.00;99.90;;;;;;4900165;29;20211;-73
2022/09/10 00:12:03;;;;;;;2.27;1.10;;;15.10;99.90;;;;;;4900320;29;20859;-73
2022/09/10 00:14:28;;;;;;;1.30;0.97;;;15.20;99.90;;;;;;4899870;29;20416;-73
2022/09/10 00:16:54;;;;;;;2.67;1.20;;;15.20;99.90;;;;;;4899944;29;20202;-73
2022/09/10 00:19:21;;;;;;;2.83;0.83;;;15.20;99.90;;;;;;4900297;29;20182;-73
2022/09/10 00:21:49;;;;;;;4.67;1.20;;;15.20;99.90;;;;;;4900124;29;20791;-73
2022/09/10 00:24:14;;;;;;;1.13;0.70;;;15.20;99.90;;;;;;4899677;29;20427;-73
2022/09/10 00:26:40;;;;;;;1.77;0.80;;;15.30;99.90;;;;;;4899754;29;20414;-73
2022/09/10 00:29:09;;;;;;;1.20;1.10;;;15.30;99.90;;;;;;4899754;29;20216;-73
2022/09/10 00:31:35;;;;;;;1.77;0.80;;;15.20;99.90;;;;;;4900235;29;20175;-72
2022/09/10 00:34:02;;;;;;;1.70;0.90;;;15.10;99.90;;;;;;4899592;29;20430;-72
2022/09/10 00:36:31;;;;;;;1.90;0.80;;;15.10;99.90;;;;;;4899756;29;20450;-73
2022/09/10 00:39:01;;;;;;;1.23;0.83;;;15.20;99.90;;;;;;4898587;29;20419;-73
2022/09/10 00:41:27;;;;;;;1.40;0.90;;;15.30;99.90;;;;;;4899921;29;20494;-73
2022/09/10 00:44:04;;;;;;;1.93;0.60;;;15.40;99.90;;;;;;4899584;29;20617;-73
2022/09/10 00:46:49;;;;;;;1.10;0.80;;;15.30;99.90;;;;;;4899686;29;20936;-72
2022/09/10 00:49:30;;;;;;;1.57;0.80;;;15.30;99.90;;;;;;4899651;29;20403;-73
2022/09/10 00:51:56;;;;;;;2.70;1.00;;;15.30;99.90;;;;;;4899489;29;20463;-73
2022/09/10 00:54:24;;;;;;;3.83;1.00;;;15.30;99.90;;;;;;4899111;29;20427;-73
2022/09/10 00:56:54;;;;;;;2.83;1.00;;;15.30;99.90;;;;;;4898465;29;20546;-73
2022/09/10 00:59:22;;;;;;;0.90;0.80;;;15.10;99.90;;;;;;4882804;29;20439;-73
2022/09/10 01:01:48;;;;;;;3.57;0.97;;;15.20;99.90;;;;;;4899430;29;20427;-72
2022/09/10 01:04:14;;;;;;;5.13;0.90;;;15.20;99.90;;;;;;4899190;29;20794;-72
2022/09/10 01:06:43;;;;;;;3.53;1.20;;;15.10;99.90;;;;;;4899293;29;20999;-73
2022/09/10 01:09:09;;;;;;;2.90;1.23;;;15.10;99.90;;;;;;4899043;29;20415;-73
2022/09/10 01:11:51;;;;;;;4.53;1.00;;;15.20;99.90;;;;;;4898140;29;20459;-73
2022/09/10 01:14:35;;;;;;;2.30;1.13;;;15.10;99.90;;;;;;4899061;29;20502;-72
2022/09/10 01:17:26;;;;;;;2.40;1.00;;;15.10;99.90;;;;;;4898756;29;20463;-73
2022/09/10 01:19:55;;;;;;;3.90;1.17;;;15.20;99.90;;;;;;4899044;29;20506;-73
2022/09/10 01:22:41;;;;;;;2.30;1.30;;;15.10;99.90;;;;;;4898467;29;20508;-72
2022/09/10 01:25:43;;;;;;;1.90;1.00;;;15.20;99.90;;;;;;4898508;29;20919;-73
2022/09/10 01:28:19;;;;;;;3.03;1.03;;;15.30;99.90;;;;;;4898734;29;20435;-73
2022/09/10 01:30:51;;;;;;;2.27;1.20;;;15.30;99.90;;;;;;4898895;29;20409;-73
2022/09/10 01:33:25;;;;;;;4.60;1.03;;;15.30;99.90;;;;;;4898604;29;20407;-73
2022/09/10 01:35:55;;;;;;;2.30;0.90;;;15.30;99.90;;;;;;4898505;29;20447;-73
2022/09/10 01:38:30;;;;;;;0.90;0.70;;;15.40;99.90;;;;;;4898783;29;20521;-73
2022/09/10 01:40:56;;;;;;;1.93;1.00;;;15.50;99.90;;;;;;4897456;29;20422;-74
2022/09/10 01:43:22;;;;;;;2.50;0.90;;;15.50;99.90;;;;;;4898548;29;20486;-73
2022/09/10 01:46:12;;;;;;;2.37;0.80;;;15.50;99.90;;;;;;4898296;29;20763;-72
2022/09/10 01:49:06;;;;;;;2.67;1.03;;;15.60;99.90;;;;;;4898862;29;20442;-72
2022/09/10 01:51:50;;;;;;;1.00;0.80;;;15.50;99.90;;;;;;4898661;29;20426;-73
2022/09/10 01:54:45;;;;;;;3.43;0.80;;;15.50;99.90;;;;;;4898349;29;20426;-73
2022/09/10 01:57:22;;;;;;;2.13;1.03;;;15.60;99.90;;;;;;4881512;29;20502;-74
2022/09/10 02:00:08;;;;;;;4.07;1.30;;;15.50;99.90;;;;;;4898542;29;20449;-73
2022/09/10 02:02:53;;;;;;;4.13;1.40;;;15.40;99.90;;;;;;4897079;29;20459;-73
2022/09/10 02:05:22;;;;;;;1.17;1.07;;;15.30;99.90;;;;;;4898036;29;20407;-73
2022/09/10 02:07:52;;;;;;;2.17;0.90;;;15.40;99.90;;;;;;4898255;29;20946;-73
2022/09/10 02:10:18;;;;;;;3.50;1.27;;;15.50;99.90;;;;;;4898346;29;20419;-73
2022/09/10 02:12:44;;;;;;;2.37;1.20;;;15.60;99.90;;;;;;4898327;29;20777;-73
2022/09/10 02:15:10;;;;;;;2.83;0.87;;;15.60;99.90;;;;;;4897997;29;20699;-73
2022/09/10 02:17:38;;;;;;;1.10;0.90;;;15.60;99.90;;;;;;4897848;29;20475;-73
2022/09/10 02:20:08;;;;;;;4.40;1.40;;;15.50;99.90;;;;;;4898144;29;20390;-73
2022/09/10 02:22:38;;;;;;;2.80;1.40;;;15.70;99.90;;;;;;4898222;29;20437;-73
2022/09/10 02:25:04;;;;;;;1.50;1.00;;;15.70;99.90;;;;;;4897801;29;20432;-73
2022/09/10 02:27:31;;;;;;;1.83;1.00;;;15.80;99.90;;;;;;4897658;29;20830;-73
2022/09/10 02:29:57;;;;;;;2.63;1.33;;;15.70;99.90;;;;;;4898027;29;20485;-73
2022/09/10 02:32:23;;;;;;;4.10;1.00;;;15.80;99.90;;;;;;4896811;29;20885;-73
2022/09/10 02:34:48;;;;;;;2.07;1.07;;;15.90;99.90;;;;;;4901336;29;20214;-73
2022/09/10 02:37:15;;;;;;;3.77;1.20;;;15.80;99.90;;;;;;4902121;29;20840;-73
2022/09/10 02:39:41;;;;;;;2.27;1.40;;;15.80;99.90;;;;;;4900780;29;20187;-74
2022/09/10 02:42:07;;;;;;;2.00;1.47;;;15.70;99.90;;;;;;4901952;29;20874;-73
2022/09/10 02:44:33;;;;;;;3.40;1.30;;;15.50;99.90;;;;;;4884726;29;20423;-73
2022/09/10 02:46:59;;;;;;;2.73;1.30;;;15.60;99.90;;;;;;4900568;29;20446;-73
2022/09/10 02:49:24;;;;;;;1.93;1.00;;;15.70;99.90;;;;;;4901851;29;20191;-73
2022/09/10 02:51:50;;;;;;;2.80;1.10;;;15.60;99.90;;;;;;4901614;29;20183;-73
2022/09/10 02:54:18;;;;;;;2.30;1.10;;;15.70;99.90;;;;;;4901434;29;20242;-73
2022/09/10 02:56:45;;;;;;;5.77;1.20;;;15.70;99.90;;;;;;4901477;29;20530;-73
2022/09/10 02:59:10;;;;;;;3.87;1.30;;;15.80;99.90;;;;;;4901606;29;20430;-73
2022/09/10 03:01:36;;;;;;;2.37;1.30;;;15.80;99.90;;;;;;4901605;29;20483;-74
2022/09/10 03:04:02;;;;;;;3.30;1.00;;;15.70;99.90;;;;;;4901150;29;20591;-73
2022/09/10 03:06:27;;;;;;;3.63;1.20;;;15.60;99.90;;;;;;4901648;29;20202;-73
2022/09/10 03:08:56;;;;;;;3.20;1.47;;;15.70;99.90;;;;;;4901434;29;20427;-73
2022/09/10 03:11:22;;;;;;;1.93;0.90;;;15.60;99.90;;;;;;4901333;29;20281;-73
2022/09/10 03:13:49;;;;;;;2.30;1.47;;;15.60;99.90;;;;;;4901018;29;20502;-74
2022/09/10 03:16:15;;;;;;;2.50;1.17;;;15.50;99.90;;;;;;4900988;29;20439;-73
2022/09/10 03:18:42;;;;;;;2.37;1.20;;;15.40;99.90;;;;;;4901273;29;20513;-72
2022/09/10 03:21:19;;;;;;;4.30;1.13;;;15.40;99.90;;;;;;4901342;29;20475;-73
2022/09/10 03:23:46;;;;;;;2.83;1.60;;;15.30;99.90;;;;;;4901031;29;20497;-73
2022/09/10 03:26:13;;;;;;;1.40;1.23;;;15.20;99.90;;;;;;4900852;29;20482;-73
2022/09/10 03:28:40;;;;;;;2.70;1.40;;;15.20;99.90;;;;;;4900886;29;20788;-73
2022/09/10 03:31:06;;;;;;;3.90;1.70;;;15.20;99.90;;;;;;4899824;29;20478;-73
2022/09/10 03:33:33;;;;;;;1.47;1.37;;;15.30;99.90;;;;;;4900994;29;20426;-73
2022/09/10 03:35:59;;;;;;;2.20;1.20;;;15.40;99.90;;;;;;4899213;29;20845;-73
2022/09/10 03:38:26;;;;;;;3.30;1.50;;;15.40;99.90;;;;;;4900895;29;20463;-72
2022/09/10 03:40:52;;;;;;;2.60;1.20;;;15.40;99.90;;;;;;4900945;29;20415;-73
2022/09/10 03:43:19;;;;;;;6.80;1.20;;;15.30;99.90;;;;;;4900898;29;20479;-72
2022/09/10 03:45:47;;;;;;;3.20;1.33;;;15.40;99.90;;;;;;4899701;29;20203;-73
2022/09/10 03:48:15;;;;;;;1.37;1.10;;;15.30;99.90;;;;;;4900566;29;20475;-74
2022/09/10 03:50:42;;;;;;;2.67;1.17;;;15.40;99.90;;;;;;4900652;29;20423;-73
2022/09/10 03:53:11;;;;;;;4.47;1.40;;;15.40;99.90;;;;;;4900703;29;20996;-73
2022/09/10 03:55:37;;;;;;;1.60;1.17;;;15.40;99.90;;;;;;4898976;29;20419;-73
2022/09/10 03:58:04;;;;;;;7.23;1.73;;;15.50;99.90;;;;;;4899338;29;20497;-72
2022/09/10 04:00:31;;;;;;;3.33;1.40;;;15.40;99.90;;;;;;4900502;29;20266;-73
2022/09/10 04:02:57;;;;;;;2.00;1.20;;;15.30;99.90;;;;;;4900456;29;20431;-73
2022/09/10 04:05:24;;;;;;;4.23;1.30;;;15.40;99.90;;;;;;4900032;29;20510;-73
2022/09/10 04:07:50;;;;;;;2.40;1.30;;;15.40;99.90;;;;;;4899399;29;20425;-73
2022/09/10 04:10:16;;;;;;;3.20;1.40;;;15.30;99.90;;;;;;4900343;29;20802;-73
2022/09/10 04:12:42;;;;;;;5.70;1.30;;;15.30;99.90;;;;;;4900303;29;20527;-72
2022/09/10 04:15:08;;;;;;;4.30;1.17;;;15.40;99.90;;;;;;4899871;29;20427;-73
2022/09/10 04:17:33;;;;;;;1.63;1.10;;;15.50;99.90;;;;;;4900096;29;20517;-73
2022/09/10 04:19:59;;;;;;;2.83;1.13;;;15.50;99.90;;;;;;4900257;29;20447;-74
2022/09/10 04:22:27;;;;;;;8.93;2.00;;;15.50;99.90;;;;;;4899929;29;20176;-73
2022/09/10 04:24:52;;;;;;;1.87;1.27;;;15.50;99.90;;;;;;4898458;29;20652;-73
2022/09/10 04:27:18;;;;;;;5.93;1.60;;;15.70;99.90;;;;;;4899772;29;20446;-73
2022/09/10 04:29:43;;;;;;;2.23;1.40;;;15.60;99.90;;;;;;4898841;29;20202;-73
2022/09/10 04:32:09;;;;;;;2.40;1.27;;;15.60;99.90;;;;;;4898711;29;20187;-73
2022/09/10 04:34:35;;;;;;;2.40;1.20;;;15.70;99.90;;;;;;4899502;29;20215;-73
2022/09/10 04:37:01;;;;;;;3.40;1.50;;;15.50;99.90;;;;;;4899688;29;20290;-73
2022/09/10 04:39:26;;;;;;;2.03;1.07;;;15.60;99.90;;;;;;4898629;29;20952;-73
2022/09/10 04:41:52;;;;;;;2.50;1.30;;;15.60;99.90;;;;;;4900022;29;20193;-73
2022/09/10 04:44:18;;;;;;;6.57;1.60;;;15.60;99.90;;;;;;4899528;29;20235;-73
2022/09/10 04:46:46;;;;;;;4.67;2.10;;;15.80;99.90;;;;;;4882899;29;20214;-73
2022/09/10 04:49:12;;;;;;;4.67;1.60;;;15.80;99.90;;;;;;4899983;29;20390;-73
2022/09/10 04:51:38;;;;;;;5.47;1.57;;;15.70;99.90;;;;;;4899665;29;20473;-73
2022/09/10 04:54:04;;;;;;;2.67;1.27;;;15.80;99.90;;;;;;4899376;29;20715;-73
2022/09/10 04:56:30;;;;;;;4.80;1.70;;;15.80;99.90;;;;;;4898647;29;20781;-73
2022/09/10 04:58:56;;;;;;;2.90;1.53;;;15.70;99.90;;;;;;4899249;29;20281;-73
2022/09/10 05:01:22;;;;;;;4.30;1.57;;;15.70;99.90;;;;;;4899430;29;20514;-73
2022/09/10 05:03:47;;;;;;;6.37;1.70;;;15.80;99.90;;;;;;4899022;29;20596;-73
2022/09/10 05:06:13;;;;;;;5.03;1.20;;;15.80;99.90;;;;;;4899305;29;20413;-73
2022/09/10 05:08:38;;;;;;;6.40;1.87;;;15.80;99.90;;;;;;4899458;29;20187;-72
2022/09/10 05:11:04;;;;;;;3.83;1.60;;;15.70;99.90;;;;;;4899274;29;20314;-73
2022/09/10 05:13:30;;;;;;;4.60;2.13;;;15.60;99.90;;;;;;4899154;29;20187;-74
2022/09/10 05:15:57;;;;;;;4.53;1.40;;;15.60;99.90;;;;;;4898767;29;20602;-73
2022/09/10 05:18:25;;;;;;;4.63;1.83;;;15.60;99.90;;;;;;4899013;29;20838;-73
2022/09/10 05:20:51;;;;;;;2.70;1.30;;;15.50;99.90;;;;;;4898937;29;20415;-73
2022/09/10 05:23:17;;;;;;;4.90;1.33;;;15.60;99.90;;;;;;4899050;29;20912;-72
2022/09/10 05:25:43;;;;;;;6.07;1.70;;;15.70;99.90;;;;;;4897252;29;20526;-73
2022/09/10 05:28:10;;;;;;;2.40;1.53;;;15.70;99.90;;;;;;4898756;29;20530;-73
2022/09/10 05:30:35;;;;;;;7.53;1.47;;;15.70;99.90;;;;;;4898839;29;20412;-74
2022/09/10 05:33:01;;;;;;;7.37;2.17;;;15.80;99.90;;;;;;4898670;29;20416;-73
2022/09/10 05:35:28;;;;;;;2.20;1.30;;;15.90;99.90;;;;;;4898486;29;20206;-73
2022/09/10 05:37:56;;;;;;;1.37;1.10;;;15.90;99.90;;;;;;4898608;29;20869;-73
2022/09/10 05:40:21;;;;;;;6.50;1.20;;;15.90;99.90;;;;;;4898692;29;20786;-74
2022/09/10 05:42:48;;;;;;;6.17;1.47;;;15.90;99.90;;;;;;4898744;29;20386;-74
2022/09/10 05:45:14;;;;;;;9.17;1.67;;;15.90;99.90;;;;;;4881381;29;20596;-74
2022/09/10 05:47:40;;;;;;;2.17;1.30;;;15.90;99.90;;;;;;4898615;29;20445;-73
2022/09/10 05:50:06;;;;;;;1.27;1.10;;;16.00;99.90;;;;;;4898561;29;20454;-73
2022/09/10 05:52:31;;;;;;;2.53;1.40;;;15.90;99.90;;;;;;4898491;29;20676;-74
2022/09/10 05:54:58;;;;;;;2.87;1.20;;;15.90;99.90;;;;;;4898119;29;20409;-73
2022/09/10 05:57:23;;;;;;;4.10;1.40;;;16.00;99.90;;;;;;4898237;29;20262;-73
2022/09/10 05:59:49;;;;;;;2.20;1.30;;;15.90;99.90;;;;;;4898668;29;20402;-73
2022/09/10 06:02:16;;;;;;;2.57;1.30;;;15.90;99.90;;;;;;4898474;29;20178;-73
2022/09/10 06:04:42;;;;;;;2.87;1.70;;;15.90;99.90;;;;;;4898160;29;20213;-74
2022/09/10 06:07:08;;;;;;;4.20;1.50;;;15.90;99.90;;;;;;4897174;29;20417;-74
2022/09/10 06:09:33;;;;;;;2.90;1.20;;;16.00;99.90;;;;;;4898041;29;20189;-73
2022/09/10 06:11:59;;;;;;;5.10;1.80;;;16.10;99.90;;;;;;4898338;29;20269;-73
2022/09/10 06:14:25;;;;;;;3.23;1.20;;;16.00;99.90;;;;;;4897921;29;20183;-73
2022/09/10 06:16:54;;;;;;;2.33;1.20;;;16.00;99.90;;;;;;4898046;29;20253;-73
2022/09/10 06:19:22;;;;;;;2.50;1.10;;;16.00;99.90;;;;;;4898083;29;20426;-75
2022/09/10 06:21:53;;;;;;;4.60;1.43;;;16.10;99.90;;;;;;4898236;29;20482;-73
2022/09/10 06:24:19;;;;;;;3.23;1.50;;;16.10;99.90;;;;;;4897879;29;20431;-74
2022/09/10 06:26:51;;;;;;;2.77;1.33;;;16.30;99.90;;;;;;4897933;29;20420;-74
2022/09/10 06:29:18;;;;;;;6.40;1.30;;;16.30;99.90;;;;;;4897810;29;20657;-73
2022/09/10 06:31:45;;;;;;;2.43;1.13;;;16.20;99.90;;;;;;4896834;29;20409;-74
2022/09/10 06:34:11;;;;;;;3.33;1.43;;;16.20;99.90;;;;;;4897747;29;20390;-73
2022/09/10 06:36:37;;;;;;;2.90;1.23;;;16.20;99.90;;;;;;4897909;29;20435;-74
2022/09/10 06:39:04;;;;;;;4.50;1.33;;;16.20;99.90;;;;;;4898029;29;20797;-73
2022/09/10 06:41:29;;;;;;;5.83;2.27;;;16.20;99.90;;;;;;4897896;29;20655;-73
2022/09/10 06:43:55;;;;;;;2.70;1.33;;;16.20;99.90;;;;;;4897581;29;20430;-74
2022/09/10 06:46:21;;;;;;;5.00;1.30;;;16.20;99.90;;;;;;4898067;29;20920;-74
2022/09/10 06:48:47;;;;;;;2.03;1.20;;;16.30;99.90;;;;;;4898314;29;20475;-73
2022/09/10 06:51:14;;;;;;;2.90;1.20;;;16.40;99.90;;;;;;4898150;29;20439;-74
2022/09/10 06:53:41;;;;;;;2.40;1.30;;;16.40;99.90;;;;;;4897730;29;20616;-73
2022/09/10 06:56:10;;;;;;;5.10;1.53;;;16.40;99.90;;;;;;4897650;29;20417;-74
2022/09/10 06:58:37;;;;;;;3.23;1.40;;;16.50;99.90;;;;;;4897882;29;20466;-74
2022/09/10 07:01:13;;;;;;;6.10;1.57;;;16.60;99.90;;;;;;4897947;29;20405;-74
2022/09/10 07:03:39;;;;;;;4.27;1.90;;;16.60;99.90;;;;;;4897859;29;20430;-73
2022/09/10 07:06:08;;;;;;;3.90;1.40;;;16.60;99.90;;;;;;4897451;29;20443;-73
2022/09/10 07:08:34;;;;;;;2.77;1.70;;;16.60;99.90;;;;;;4897898;29;20427;-73
2022/09/10 07:11:05;;;;;;;3.90;2.13;;;16.60;99.90;;;;;;4897779;29;20424;-73
2022/09/10 07:13:31;;;;;;;3.10;1.70;;;16.60;99.90;;;;;;4897870;29;20453;-73
2022/09/10 07:15:57;;;;;;;2.20;1.40;;;16.50;99.90;;;;;;4897306;29;20460;-73
2022/09/10 07:18:24;;;;;;;1.87;1.30;;;16.50;99.90;;;;;;4897688;29;20476;-73
2022/09/10 07:20:50;;;;;;;3.03;1.73;;;16.40;99.90;;;;;;4899578;29;20438;-73
2022/09/10 07:23:18;;;;;;;2.03;1.63;;;16.30;99.90;;;;;;4900045;29;20944;-73
2022/09/10 07:25:44;;;;;;;4.53;1.93;;;16.30;99.90;;;;;;4900544;29;20926;-73
2022/09/10 07:28:14;;;;;;;4.33;1.60;;;16.20;99.90;;;;;;4900864;29;20842;-73
2022/09/10 07:30:40;;;;;;;8.67;2.07;;;16.30;99.90;;;;;;4901070;29;20423;-73
2022/09/10 07:33:07;;;;;;;2.03;1.60;;;16.30;99.90;;;;;;4900947;29;20435;-73
2022/09/10 07:35:35;;;;;;;3.20;1.60;;;16.30;99.90;;;;;;4900653;29;20784;-73
2022/09/10 07:38:02;;;;;;;7.40;1.97;;;16.30;99.90;;;;;;4900581;29;20630;-73
2022/09/10 07:40:28;;;;;;;8.00;1.60;;;16.40;99.90;;;;;;4900871;29;20426;-73
2022/09/10 07:42:54;;;;;;;3.87;1.80;;;16.50;99.90;;;;;;4900859;29;20398;-73
2022/09/10 07:45:20;;;;;;;2.00;1.50;;;16.50;99.90;;;;;;4900515;29;20181;-73
2022/09/10 07:47:47;;;;;;;2.83;1.80;;;16.50;99.90;;;;;;4901058;29;20442;-74
2022/09/10 07:50:13;;;;;;;2.97;1.83;;;16.50;99.90;;;;;;4900581;29;20445;-73
2022/09/10 07:52:39;;;;;;;3.77;1.80;;;16.50;99.90;;;;;;4900681;29;20402;-73
2022/09/10 07:55:06;;;;;;;3.47;1.60;;;16.50;99.90;;;;;;4900265;29;20483;-73
2022/09/10 07:57:39;;;;;;;4.90;1.60;;;16.50;99.90;;;;;;4900296;29;20521;-73
2022/09/10 08:00:11;;;;;;;3.67;1.90;;;16.50;99.90;;;;;;4900366;29;20419;-73
2022/09/10 08:02:38;;;;;;;4.07;2.07;;;16.70;99.90;;;;;;4900671;29;20398;-73
2022/09/10 08:05:04;;;;;;;4.93;2.17;;;16.60;99.90;;;;;;4900279;29;20433;-73
2022/09/10 08:07:30;;;;;;;7.10;2.17;;;16.60;99.90;;;;;;4900396;29;20774;-73
2022/09/10 08:09:56;;;;;;;2.23;1.90;;;16.70;99.90;;;;;;4900541;29;20398;-73
2022/09/10 08:12:24;;;;;;;4.60;2.17;;;16.70;99.90;;;;;;4899199;29;20199;-73
2022/09/10 08:14:51;;;;;;;7.40;2.70;;;16.70;99.90;;;;;;4898931;29;20434;-73
2022/09/10 08:17:17;;;;;;;3.43;2.00;;;16.70;99.90;;;;;;4900081;29;20471;-73
2022/09/10 08:19:42;;;;;;;7.83;2.73;;;16.60;99.90;;;;;;4900176;29;20429;-73
2022/09/10 08:22:08;;;;;;;2.83;2.50;;;16.50;99.90;;;;;;4899984;29;20433;-73
2022/09/10 08:24:34;;;;;;;5.13;2.37;;;16.50;99.90;;;;;;4899717;29;20435;-73
2022/09/10 08:26:59;;;;;;;4.23;2.53;;;16.60;99.90;;;;;;4899999;29;20211;-72
2022/09/10 08:29:25;;;;;;;4.43;2.93;;;16.50;99.90;;;;;;4899859;29;20206;-73
2022/09/10 08:31:50;;;;;;;4.87;2.93;;;16.60;99.90;;;;;;4899804;29;20198;-73
2022/09/10 08:34:16;;;;;;;3.20;2.90;;;16.60;99.90;;;;;;4899547;29;20220;-73
2022/09/10 08:36:42;;;;;;;6.00;3.20;;;16.70;99.90;;;;;;4898505;29;20286;-73
2022/09/10 08:39:07;;;;;;;4.90;2.67;;;16.80;99.90;;;;;;4899703;29;20641;-73
2022/09/10 08:41:36;;;;;;;5.07;2.50;;;17.00;99.90;;;;;;4899671;29;20194;-73
2022/09/10 08:44:11;;;;;;;2.47;2.27;;;17.10;99.90;;;;;;4899390;29;20549;-72
2022/09/10 08:46:43;;;;;;;4.17;2.40;;;17.10;99.90;;;;;;4899519;29;20409;-72
2022/09/10 08:49:28;;;;;;;3.90;2.77;;;17.20;99.90;;;;;;4899640;29;20423;-73
2022/09/10 08:51:58;;;;;;;6.87;3.90;;;17.10;99.90;;;;;;4899848;29;20420;-77
2022/09/10 08:54:29;;;;;;;5.80;2.40;;;17.20;99.90;;;;;;4899451;29;20401;-77
2022/09/10 08:56:58;;;;;;;4.53;2.93;;;17.20;99.90;;;;;;4899358;29;20458;-76
2022/09/10 08:59:31;;;;;;;3.20;2.63;;;17.30;99.90;;;;;;4899551;29;20419;-77
2022/09/10 09:02:24;;;;;;;6.63;2.87;;;17.30;99.90;;;;;;4899440;29;20393;-77
2022/09/10 09:05:01;;;;;;;6.40;3.30;;;17.30;99.90;;;;;;4897291;29;20408;-77
2022/09/10 09:07:36;;;;;;;7.20;2.90;;;17.10;99.90;;;;;;4882287;29;20434;-77
2022/09/10 09:10:17;;;;;;;6.37;2.67;;;17.10;99.90;;;;;;4899372;29;20476;-77
2022/09/10 09:12:51;;;;;;;6.57;3.23;;;17.10;99.90;;;;;;4897821;29;21001;-78
2022/09/10 09:15:50;;;;;;;4.83;3.40;;;16.90;99.90;;;;;;4897839;29;20843;-77
2022/09/10 09:18:41;;;;;;;4.60;3.73;;;16.90;99.90;;;;;;4898585;29;20573;-78
2022/09/10 09:21:17;;;;;;;6.73;3.43;;;16.80;99.90;;;;;;4897819;29;20454;-77
2022/09/10 09:23:54;;;;;;;5.17;3.50;;;16.70;99.90;;;;;;4899166;29;20419;-78
2022/09/10 09:26:23;;;;;;;8.60;3.10;;;16.70;99.90;;;;;;4897931;29;20510;-78
2022/09/10 09:29:05;;;;;;;5.90;3.80;;;16.70;99.90;;;;;;4898701;29;20879;-77
2022/09/10 09:31:36;;;;;;;6.10;4.10;;;16.70;99.90;;;;;;4899119;29;20426;-77
2022/09/10 09:34:27;;;;;;;8.30;3.50;;;16.60;99.90;;;;;;4898533;29;20401;-77
2022/09/10 09:36:56;;;;;;;6.80;4.87;;;16.60;99.90;;;;;;4898438;29;20455;-77
2022/09/10 09:39:34;;;;;;;6.67;4.43;;;16.60;99.90;;;;;;4898957;29;20782;-78
2022/09/10 09:42:39;;;;;;;7.23;3.83;;;16.60;99.90;;;;;;4881901;29;20438;-78
2022/09/10 09:45:23;;;;;;;4.77;3.80;;;16.60;99.90;;;;;;4881342;29;20426;-77
2022/09/10 09:47:49;;;;;;;5.10;3.77;;;16.60;99.90;;;;;;4898702;29;20401;-77
2022/09/10 09:50:17;;;;;;;4.97;4.07;;;16.70;99.90;;;;;;4898644;29;20510;-78
2022/09/10 09:52:43;;;;;;;7.60;3.40;;;16.70;99.90;;;;;;4897395;29;20473;-78
2022/09/10 09:55:40;;;;;;;6.17;4.27;;;16.80;99.90;;;;;;4898261;29;20453;-78
2022/09/10 09:58:21;;;;;;;4.37;3.30;;;16.90;99.90;;;;;;4897986;29;20988;-78
2022/09/10 10:01:03;;;;;;;4.63;3.20;;;16.90;99.90;;;;;;4898242;29;20883;-79
2022/09/10 10:03:53;;;;;;;6.50;3.90;;;17.00;99.90;;;;;;4897135;29;20457;-79
2022/09/10 10:06:31;;;;;;;4.83;3.40;;;17.10;99.90;;;;;;4880972;29;20451;-79
2022/09/10 10:08:57;;;;;;;7.93;3.37;;;17.20;99.90;;;;;;4898391;29;20425;-75
2022/09/10 10:11:49;;;;;;;10.23;3.70;;;17.20;99.90;;;;;;4894507;29;20525;-74
2022/09/10 10:14:24;;;;;;;7.70;3.40;;;17.20;99.90;;;;;;4889216;29;20196;-74
2022/09/10 10:16:52;;;;;;;5.57;3.50;;;17.20;99.90;;;;;;4889514;29;20838;-73
2022/09/10 10:19:39;;;;;;;4.87;3.00;;;17.10;99.90;;;;;;4888265;29;20420;-74
2022/09/10 10:22:13;;;;;;;6.40;3.63;;;17.10;99.90;;;;;;4887531;29;20482;-73
2022/09/10 10:24:44;;;;;;;3.67;3.10;;;17.10;99.90;;;;;;4893844;29;20849;-74
2022/09/10 10:27:31;;;;;;;4.97;3.57;;;17.10;99.90;;;;;;4898008;29;20458;-74
2022/09/10 10:30:01;;;;;;;5.43;3.63;;;17.10;99.90;;;;;;4898149;29;20423;-74
2022/09/10 10:32:41;;;;;;;8.53;3.50;;;17.20;99.90;;;;;;4898200;29;20389;-74
2022/09/10 10:35:28;;;;;;;5.67;3.60;;;17.30;99.90;;;;;;4897835;29;20414;-73
2022/09/10 10:38:02;;;;;;;7.73;4.00;;;17.30;99.90;;;;;;4897981;29;20493;-73
2022/09/10 10:40:35;;;;;;;3.93;3.13;;;17.30;99.90;;;;;;4897993;29;20484;-73
2022/09/10 10:43:23;;;;;;;5.47;2.97;;;17.20;99.90;;;;;;4897965;29;20415;-73
2022/09/10 10:46:19;;;;;;;4.03;3.50;;;17.20;99.90;;;;;;4897113;29;20534;-73
2022/09/10 10:49:05;;;;;;;5.00;3.40;;;17.20;99.90;;;;;;4897899;29;20405;-73
2022/09/10 10:51:40;;;;;;;4.70;3.00;;;17.10;99.90;;;;;;4902462;29;20438;-74
2022/09/10 10:54:36;;;;;;;5.53;2.90;;;17.20;99.90;;;;;;4898320;29;20524;-73
2022/09/10 10:57:08;;;;;;;5.13;2.60;;;17.20;99.90;;;;;;4901201;29;20453;-74
2022/09/10 11:00:17;;;;;;;5.10;3.30;;;17.20;99.90;;;;;;4901729;29;20408;-73
2022/09/10 11:03:30;;;;;;;4.53;3.10;;;17.20;99.90;;;;;;4901076;29;20431;-73
2022/09/10 11:06:14;;;;;;;3.90;3.40;;;17.30;99.90;;;;;;4896277;29;21169;-73
2022/09/10 11:08:49;;;;;;;4.73;3.23;;;17.30;99.90;;;;;;4911118;29;20427;-74
2022/09/10 11:11:23;;;;;;;4.13;2.90;;;17.10;99.90;;;;;;4890553;29;20444;-74
2022/09/10 11:14:08;;;;;;;5.83;3.20;;;16.90;99.90;;;;;;4890679;29;20801;-74
2022/09/10 11:16:44;;;;;;;7.37;3.40;;;16.80;99.90;;;;;;4881288;29;20455;-74
2022/09/10 11:19:34;;;;;;;7.23;4.30;;;16.80;99.90;;;;;;4882796;29;20471;-74
2022/09/10 11:22:12;;;;;;;4.63;3.43;;;16.80;99.90;;;;;;4882745;29;20419;-77
2022/09/10 11:24:44;;;;;;;5.93;3.23;;;16.90;99.90;;;;;;4882454;29;20418;-78
2022/09/10 11:27:37;;;;;;;8.07;3.63;;;17.00;99.90;;;;;;4882507;29;20436;-78
2022/09/10 11:30:11;;;;;;;3.33;3.03;;;17.10;99.90;;;;;;4881198;29;20850;-78
2022/09/10 11:32:57;;;;;;;7.60;3.50;;;17.10;99.90;;;;;;4882481;29;20506;-78
2022/09/10 11:35:58;;;;;;;3.77;3.07;;;17.20;99.90;;;;;;4884912;29;20447;-79
2022/09/10 11:38:31;;;;;;;7.13;3.73;;;17.30;99.90;;;;;;4897782;29;20506;-78
2022/09/10 11:41:15;;;;;;;4.30;3.73;;;17.30;99.90;;;;;;4899493;29;20790;-78
2022/09/10 11:44:07;;;;;;;8.33;3.77;;;17.30;99.90;;;;;;4900918;29;20859;-78
2022/09/10 11:47:02;;;;;;;5.13;4.30;;;17.20;99.90;;;;;;4900728;29;20414;-77
2022/09/10 11:50:06;;;;;;;6.53;3.93;;;17.20;99.90;;;;;;4900523;29;20421;-78
2022/09/10 11:52:34;;;;;;;6.87;4.60;;;17.10;99.90;;;;;;4899124;29;20439;-78
2022/09/10 11:55:02;;;;;;;5.07;4.60;;;17.10;99.90;;;;;;4900253;29;20946;-79
2022/09/10 11:57:50;;;;;;;5.60;4.30;;;17.10;99.90;;;;;;4899344;29;20841;-77
2022/09/10 12:00:17;;;;;;;4.63;4.23;;;17.20;99.90;;;;;;4900590;29;20466;-78
2022/09/10 12:03:20;;;;;;;6.90;4.77;;;17.20;99.90;;;;;;4899264;29;20906;-77
2022/09/10 12:06:03;;;;;;;5.17;4.73;;;17.20;99.90;;;;;;4899401;29;20777;-77
2022/09/10 12:08:44;;;;;;;6.30;5.80;;;17.20;99.90;;;;;;4900724;29;20422;-77
2022/09/10 12:11:34;;;;;;;9.90;5.73;;;17.20;99.90;;;;;;4885953;29;20424;-77
2022/09/10 12:14:13;;;;;;;7.50;5.70;;;17.20;99.90;;;;;;4895443;29;20414;-77
2022/09/10 12:17:02;;;;;;;5.70;5.03;;;17.30;99.90;;;;;;4895990;29;20448;-77
2022/09/10 12:19:33;;;;;;;7.80;5.83;;;17.40;99.90;;;;;;4881436;29;20409;-77
2022/09/10 12:22:08;;;;;;;7.27;5.77;;;17.50;99.90;;;;;;4881571;29;20814;-77
2022/09/10 12:24:36;;;;;;;7.77;5.63;;;17.70;99.90;;;;;;4881126;29;20412;-78
2022/09/10 12:27:04;;;;;;;7.10;6.27;;;17.90;99.90;;;;;;4881305;29;20436;-77
2022/09/10 12:29:40;;;;;;;10.00;6.00;;;18.00;99.90;;;;;;4884214;29;20798;-78
2022/09/10 12:32:20;;;;;;;5.70;5.20;;;18.10;99.90;;;;;;4899932;29;20415;-77
2022/09/10 12:35:07;;;;;;;6.33;5.60;;;18.10;99.90;;;;;;4899520;29;20476;-77
2022/09/10 12:37:33;;;;;;;10.23;6.00;;;18.10;99.90;;;;;;4899578;29;20445;-77
2022/09/10 12:40:37;;;;;;;7.77;5.80;;;18.00;99.90;;;;;;4899752;29;20740;-77
2022/09/10 12:43:37;;;;;;;7.97;6.90;;;17.80;99.90;;;;;;4882852;29;20418;-77
2022/09/10 12:46:16;;;;;;;8.40;6.80;;;17.60;99.90;;;;;;4884876;29;20821;-77
2022/09/10 12:48:53;;;;;;;9.70;8.70;;;17.40;99.90;;;;;;4880783;29;20419;-73
2022/09/10 12:51:18;;;;;;;12.60;10.60;;;17.30;99.90;;;;;;4877139;29;20530;-74
2022/09/10 12:54:29;;;;;;;14.93;11.17;;;17.00;99.90;;;;;;4878411;29;20876;-74
2022/09/10 12:57:19;;;;;;;14.00;12.47;;;16.70;99.90;;;;;;4878701;29;20495;-75
2022/09/10 13:00:11;;;;;;;13.63;11.87;;;16.40;99.90;;;;;;4878993;29;20788;-74
2022/09/10 13:02:45;;;;;;;12.77;11.43;;;16.20;99.90;;;;;;4878300;29;20417;-75
2022/09/10 13:05:52;;;;;;;14.10;11.77;;;16.00;99.90;;;;;;4896240;29;20429;-74
2022/09/10 13:08:30;;;;;;;21.03;15.63;;;16.00;99.90;;;;;;4897035;29;20778;-73
2022/09/10 13:10:57;;;;;;;19.40;14.20;;;15.90;99.90;;;;;;4895816;29;20454;-74
2022/09/10 13:13:44;;;;;;;16.60;14.90;;;15.90;99.90;;;;;;4897797;29;20579;-73